sensor_id;sensor_type;location;lat;lon;timestamp;temperature;humidity
42615;DHT22;28754;47.700;7.924;2023-02-16T00:01:47;8.50;99.90
42615;DHT22;28754;47.700;7.924;2023-02-16T00:04:36;8.50;99.90
42615;DHT22;28754;47.700;7.924;2023-02-16T00:07:23;8.50;99.90
42615;DHT22;28754;47.700;7.924;2023-02-16T00:10:12;8.50;99.90
42615;DHT22;28754;47.700;7.924;2023-02-16T00:13:02;8.50;99.90
42615;DHT22;28754;47.700;7.924;2023-02-16T00:16:23;8.50;99.90
42615;DHT22;28754;47.700;7.924;2023-02-16T00:22:06;8.50;99.90
42615;DHT22;28754;47.700;7.924;2023-02-16T00:24:54;8.40;99.90
42615;DHT22;28754;47.700;7.924;2023-02-16T00:27:42;8.30;99.90
42615;DHT22;28754;47.700;7.924;2023-02-16T00:30:31;8.20;99.90
42615;DHT22;28754;47.700;7.924;2023-02-16T00:33:19;8.10;99.90
42615;DHT22;28754;47.700;7.924;2023-02-16T00:36:07;8.20;99.90
42615;DHT22;28754;47.700;7.924;2023-02-16T00:39:01;8.10;99.90
42615;DHT22;28754;47.700;7.924;2023-02-16T00:41:53;8.10;99.90
42615;DHT22;28754;47.700;7.924;2023-02-16T00:44:57;8.10;99.90
42615;DHT22;28754;47.700;7.924;2023-02-16T00:47:50;8.00;99.90
42615;DHT22;28754;47.700;7.924;2023-02-16T00:50:38;8.10;99.90
42615;DHT22;28754;47.700;7.924;2023-02-16T00:53:25;8.10;99.90
42615;DHT22;28754;47.700;7.924;2023-02-16T00:56:17;7.90;99.90
42615;DHT22;28754;47.700;7.924;2023-02-16T00:59:11;7.90;99.90
42615;DHT22;28754;47.700;7.924;2023-02-16T01:02:02;7.70;99.90
42615;DHT22;28754;47.700;7.924;2023-02-16T01:04:49;7.70;99.90
42615;DHT22;28754;47.700;7.924;2023-02-16T01:07:36;7.70;99.90
42615;DHT22;28754;47.700;7.924;2023-02-16T01:10:42;7.80;99.90
42615;DHT22;28754;47.700;7.924;2023-02-16T01:13:47;7.90;99.90
42615;DHT22;28754;47.700;7.924;2023-02-16T01:16:38;7.70;99.90
42615;DHT22;28754;47.700;7.924;2023-02-16T01:19:27;7.60;99.90
42615;DHT22;28754;47.700;7.924;2023-02-16T01:22:14;7.70;99.90
42615;DHT22;28754;47.700;7.924;2023-02-16T01:25:02;7.50;99.90
42615;DHT22;28754;47.700;7.924;2023-02-16T01:27:53;7.40;99.90
42615;DHT22;28754;47.700;7.924;2023-02-16T01:30:44;7.30;99.90
42615;DHT22;28754;47.700;7.924;2023-02-16T01:33:32;7.20;99.90
42615;DHT22;28754;47.700;7.924;2023-02-16T01:36:27;7.30;99.90
42615;DHT22;28754;47.700;7.924;2023-02-16T01:39:19;7.30;99.90
42615;DHT22;28754;47.700;7.924;2023-02-16T01:42:33;7.40;99.90
42615;DHT22;28754;47.700;7.924;2023-02-16T01:45:44;7.30;99.90
42615;DHT22;28754;47.700;7.924;2023-02-16T01:48:35;7.30;99.90
42615;DHT22;28754;47.700;7.924;2023-02-16T01:51:27;7.30;99.90
42615;DHT22;28754;47.700;7.924;2023-02-16T01:57:44;7.40;99.90
42615;DHT22;28754;47.700;7.924;2023-02-16T02:03:38;7.20;99.90
42615;DHT22;28754;47.700;7.924;2023-02-16T02:07:00;7.10;99.90
42615;DHT22;28754;47.700;7.924;2023-02-16T02:09:58;7.10;99.90
42615;DHT22;28754;47.700;7.924;2023-02-16T02:13:06;7.20;99.90
42615;DHT22;28754;47.700;7.924;2023-02-16T02:15:59;7.10;99.90
42615;DHT22;28754;47.700;7.924;2023-02-16T02:18:48;7.00;99.90
42615;DHT22;28754;47.700;7.924;2023-02-16T02:28:49;7.00;99.90
42615;DHT22;28754;47.700;7.924;2023-02-16T02:41:51;6.90;99.90
42615;DHT22;28754;47.700;7.924;2023-02-16T02:45:08;6.90;99.90
42615;DHT22;28754;47.700;7.924;2023-02-16T02:48:02;6.90;99.90
42615;DHT22;28754;47.700;7.924;2023-02-16T02:50:52;6.80;99.90
42615;DHT22;28754;47.700;7.924;2023-02-16T02:54:15;6.80;99.90
42615;DHT22;28754;47.700;7.924;2023-02-16T02:57:39;6.70;99.90
42615;DHT22;28754;47.700;7.924;2023-02-16T03:00:50;6.70;99.90
42615;DHT22;28754;47.700;7.924;2023-02-16T03:04:00;6.60;99.90
42615;DHT22;28754;47.700;7.924;2023-02-16T03:07:05;6.50;99.90
42615;DHT22;28754;47.700;7.924;2023-02-16T03:10:00;6.50;99.90
42615;DHT22;28754;47.700;7.924;2023-02-16T03:13:21;6.40;99.90
42615;DHT22;28754;47.700;7.924;2023-02-16T03:16:54;6.50;99.90
42615;DHT22;28754;47.700;7.924;2023-02-16T03:20:11;6.50;99.90
42615;DHT22;28754;47.700;7.924;2023-02-16T03:23:18;6.50;99.90
42615;DHT22;28754;47.700;7.924;2023-02-16T03:26:28;6.60;99.90
42615;DHT22;28754;47.700;7.924;2023-02-16T03:29:36;6.60;99.90
42615;DHT22;28754;47.700;7.924;2023-02-16T03:32:24;6.50;99.90
42615;DHT22;28754;47.700;7.924;2023-02-16T03:35:14;6.50;99.90
42615;DHT22;28754;47.700;7.924;2023-02-16T03:38:05;6.50;99.90
42615;DHT22;28754;47.700;7.924;2023-02-16T03:40:53;6.40;99.90
42615;DHT22;28754;47.700;7.924;2023-02-16T03:43:40;6.40;99.90
42615;DHT22;28754;47.700;7.924;2023-02-16T03:46:28;6.40;99.90
42615;DHT22;28754;47.700;7.924;2023-02-16T03:49:19;6.40;99.90
42615;DHT22;28754;47.700;7.924;2023-02-16T03:52:06;6.40;99.90
42615;DHT22;28754;47.700;7.924;2023-02-16T03:54:52;6.30;99.90
42615;DHT22;28754;47.700;7.924;2023-02-16T03:57:39;6.40;99.90
42615;DHT22;28754;47.700;7.924;2023-02-16T04:00:26;6.40;99.90
42615;DHT22;28754;47.700;7.924;2023-02-16T04:03:13;6.40;99.90
42615;DHT22;28754;47.700;7.924;2023-02-16T04:06:00;6.40;99.90
42615;DHT22;28754;47.700;7.924;2023-02-16T04:08:46;6.30;99.90
42615;DHT22;28754;47.700;7.924;2023-02-16T04:11:33;6.20;99.90
42615;DHT22;28754;47.700;7.924;2023-02-16T04:14:38;6.20;99.90
42615;DHT22;28754;47.700;7.924;2023-02-16T04:20:19;6.20;99.90
42615;DHT22;28754;47.700;7.924;2023-02-16T04:23:11;6.30;99.90
42615;DHT22;28754;47.700;7.924;2023-02-16T04:26:01;6.20;99.90
42615;DHT22;28754;47.700;7.924;2023-02-16T04:28:47;6.30;99.90
42615;DHT22;28754;47.700;7.924;2023-02-16T04:31:34;6.30;99.90
42615;DHT22;28754;47.700;7.924;2023-02-16T04:34:31;6.20;99.90
42615;DHT22;28754;47.700;7.924;2023-02-16T04:37:21;6.10;99.90
42615;DHT22;28754;47.700;7.924;2023-02-16T04:40:09;6.10;99.90
42615;DHT22;28754;47.700;7.924;2023-02-16T04:43:32;6.10;99.90
42615;DHT22;28754;47.700;7.924;2023-02-16T04:54:05;5.90;99.90
42615;DHT22;28754;47.700;7.924;2023-02-16T04:56:52;5.90;99.90
42615;DHT22;28754;47.700;7.924;2023-02-16T04:59:39;5.80;99.90
42615;DHT22;28754;47.700;7.924;2023-02-16T05:06:00;5.90;99.90
42615;DHT22;28754;47.700;7.924;2023-02-16T05:08:47;5.90;99.90
42615;DHT22;28754;47.700;7.924;2023-02-16T05:11:34;5.90;99.90
42615;DHT22;28754;47.700;7.924;2023-02-16T05:14:39;5.80;99.90
42615;DHT22;28754;47.700;7.924;2023-02-16T05:17:32;5.80;99.90
42615;DHT22;28754;47.700;7.924;2023-02-16T05:20:19;5.50;99.90
42615;DHT22;28754;47.700;7.924;2023-02-16T05:23:25;5.50;99.90
42615;DHT22;28754;47.700;7.924;2023-02-16T05:26:12;5.60;99.90
42615;DHT22;28754;47.700;7.924;2023-02-16T05:29:02;5.60;99.90
42615;DHT22;28754;47.700;7.924;2023-02-16T05:31:49;5.60;99.90
42615;DHT22;28754;47.700;7.924;2023-02-16T05:34:36;5.60;99.90
42615;DHT22;28754;47.700;7.924;2023-02-16T05:37:23;5.60;99.90
42615;DHT22;28754;47.700;7.924;2023-02-16T05:40:10;5.60;99.90
42615;DHT22;28754;47.700;7.924;2023-02-16T05:42:57;5.50;99.90
42615;DHT22;28754;47.700;7.924;2023-02-16T05:45:44;5.60;99.90
42615;DHT22;28754;47.700;7.924;2023-02-16T05:48:30;5.70;99.90
42615;DHT22;28754;47.700;7.924;2023-02-16T05:51:18;5.60;99.90
42615;DHT22;28754;47.700;7.924;2023-02-16T05:54:05;5.70;99.90
42615;DHT22;28754;47.700;7.924;2023-02-16T05:56:52;5.50;99.90
42615;DHT22;28754;47.700;7.924;2023-02-16T05:59:39;5.40;99.90
42615;DHT22;28754;47.700;7.924;2023-02-16T06:02:25;5.40;99.90
42615;DHT22;28754;47.700;7.924;2023-02-16T06:05:12;5.40;99.90
42615;DHT22;28754;47.700;7.924;2023-02-16T06:07:59;5.20;99.90
42615;DHT22;28754;47.700;7.924;2023-02-16T06:10:47;5.30;99.90
42615;DHT22;28754;47.700;7.924;2023-02-16T06:13:35;5.20;99.90
42615;DHT22;28754;47.700;7.924;2023-02-16T06:16:23;5.20;99.90
42615;DHT22;28754;47.700;7.924;2023-02-16T06:19:12;5.10;99.90
42615;DHT22;28754;47.700;7.924;2023-02-16T06:22:00;5.20;99.90
42615;DHT22;28754;47.700;7.924;2023-02-16T06:24:47;5.30;99.90
42615;DHT22;28754;47.700;7.924;2023-02-16T06:27:34;5.30;99.90
42615;DHT22;28754;47.700;7.924;2023-02-16T06:30:20;5.30;99.90
42615;DHT22;28754;47.700;7.924;2023-02-16T06:33:10;5.30;99.90
42615;DHT22;28754;47.700;7.924;2023-02-16T06:35:57;5.20;99.90
42615;DHT22;28754;47.700;7.924;2023-02-16T06:38:44;5.20;99.90
42615;DHT22;28754;47.700;7.924;2023-02-16T06:41:31;5.10;99.90
42615;DHT22;28754;47.700;7.924;2023-02-16T06:44:20;5.10;99.90
42615;DHT22;28754;47.700;7.924;2023-02-16T06:47:07;4.90;99.90
42615;DHT22;28754;47.700;7.924;2023-02-16T06:49:54;5.00;99.90
42615;DHT22;28754;47.700;7.924;2023-02-16T06:52:41;5.10;99.90
42615;DHT22;28754;47.700;7.924;2023-02-16T06:55:28;5.20;99.90
42615;DHT22;28754;47.700;7.924;2023-02-16T06:58:16;5.30;99.90
42615;DHT22;28754;47.700;7.924;2023-02-16T07:01:03;5.30;99.90
42615;DHT22;28754;47.700;7.924;2023-02-16T07:03:52;5.40;99.90
42615;DHT22;28754;47.700;7.924;2023-02-16T07:06:39;5.10;99.90
42615;DHT22;28754;47.700;7.924;2023-02-16T07:09:26;5.00;99.90
42615;DHT22;28754;47.700;7.924;2023-02-16T07:12:13;5.60;99.90
42615;DHT22;28754;47.700;7.924;2023-02-16T07:15:00;7.90;99.90
42615;DHT22;28754;47.700;7.924;2023-02-16T07:17:47;10.40;99.90
42615;DHT22;28754;47.700;7.924;2023-02-16T07:20:33;11.80;99.90
42615;DHT22;28754;47.700;7.924;2023-02-16T07:23:20;13.70;99.90
42615;DHT22;28754;47.700;7.924;2023-02-16T07:26:07;15.10;97.90
42615;DHT22;28754;47.700;7.924;2023-02-16T07:28:54;16.60;95.70
42615;DHT22;28754;47.700;7.924;2023-02-16T07:31:40;17.40;94.20
42615;DHT22;28754;47.700;7.924;2023-02-16T07:34:27;18.30;93.20
42615;DHT22;28754;47.700;7.924;2023-02-16T07:37:14;19.30;91.90
42615;DHT22;28754;47.700;7.924;2023-02-16T07:40:01;19.50;91.30
42615;DHT22;28754;47.700;7.924;2023-02-16T07:42:47;20.40;90.60
42615;DHT22;28754;47.700;7.924;2023-02-16T07:45:34;19.40;90.60
42615;DHT22;28754;47.700;7.924;2023-02-16T07:48:21;20.10;90.80
42615;DHT22;28754;47.700;7.924;2023-02-16T07:51:08;21.50;88.60
42615;DHT22;28754;47.700;7.924;2023-02-16T07:53:55;22.50;87.80
42615;DHT22;28754;47.700;7.924;2023-02-16T07:56:43;22.80;86.40
42615;DHT22;28754;47.700;7.924;2023-02-16T07:59:29;23.90;84.90
42615;DHT22;28754;47.700;7.924;2023-02-16T08:02:17;22.40;86.40
42615;DHT22;28754;47.700;7.924;2023-02-16T08:05:05;22.00;86.40
42615;DHT22;28754;47.700;7.924;2023-02-16T08:07:52;22.50;86.10
42615;DHT22;28754;47.700;7.924;2023-02-16T08:10:38;22.30;86.20
42615;DHT22;28754;47.700;7.924;2023-02-16T08:13:25;22.60;85.80
42615;DHT22;28754;47.700;7.924;2023-02-16T08:16:19;22.10;87.00
42615;DHT22;28754;47.700;7.924;2023-02-16T08:19:08;23.30;84.30
42615;DHT22;28754;47.700;7.924;2023-02-16T08:21:57;24.80;82.30
42615;DHT22;28754;47.700;7.924;2023-02-16T08:24:44;25.60;80.50
42615;DHT22;28754;47.700;7.924;2023-02-16T08:27:31;25.80;79.80
42615;DHT22;28754;47.700;7.924;2023-02-16T08:30:18;25.20;79.30
42615;DHT22;28754;47.700;7.924;2023-02-16T08:33:05;25.40;79.00
42615;DHT22;28754;47.700;7.924;2023-02-16T08:35:52;25.20;78.00
42615;DHT22;28754;47.700;7.924;2023-02-16T08:38:39;25.80;77.20
42615;DHT22;28754;47.700;7.924;2023-02-16T08:41:31;26.20;77.40
42615;DHT22;28754;47.700;7.924;2023-02-16T08:44:22;27.10;76.00
42615;DHT22;28754;47.700;7.924;2023-02-16T08:47:10;26.60;75.30
42615;DHT22;28754;47.700;7.924;2023-02-16T08:49:57;27.60;76.10
42615;DHT22;28754;47.700;7.924;2023-02-16T08:52:44;29.10;74.80
42615;DHT22;28754;47.700;7.924;2023-02-16T08:55:31;27.90;75.00
42615;DHT22;28754;47.700;7.924;2023-02-16T08:58:17;28.30;75.80
42615;DHT22;28754;47.700;7.924;2023-02-16T09:01:07;30.10;73.40
42615;DHT22;28754;47.700;7.924;2023-02-16T09:03:55;29.00;73.00
42615;DHT22;28754;47.700;7.924;2023-02-16T09:06:43;30.70;70.90
42615;DHT22;28754;47.700;7.924;2023-02-16T09:09:31;31.90;70.30
42615;DHT22;28754;47.700;7.924;2023-02-16T09:12:18;31.50;70.30
42615;DHT22;28754;47.700;7.924;2023-02-16T09:15:06;30.20;69.20
42615;DHT22;28754;47.700;7.924;2023-02-16T09:17:53;29.30;70.50
42615;DHT22;28754;47.700;7.924;2023-02-16T09:20:41;30.40;70.00
42615;DHT22;28754;47.700;7.924;2023-02-16T09:23:29;27.90;71.00
42615;DHT22;28754;47.700;7.924;2023-02-16T09:26:20;29.80;70.70
42615;DHT22;28754;47.700;7.924;2023-02-16T09:29:10;31.40;70.70
42615;DHT22;28754;47.700;7.924;2023-02-16T09:31:57;29.00;69.50
42615;DHT22;28754;47.700;7.924;2023-02-16T09:34:44;27.30;71.50
42615;DHT22;28754;47.700;7.924;2023-02-16T09:37:32;27.40;74.00
42615;DHT22;28754;47.700;7.924;2023-02-16T09:40:19;26.80;72.20
42615;DHT22;28754;47.700;7.924;2023-02-16T09:46:31;28.10;73.10
42615;DHT22;28754;47.700;7.924;2023-02-16T09:49:39;29.40;69.90
42615;DHT22;28754;47.700;7.924;2023-02-16T09:52:49;30.10;69.80
42615;DHT22;28754;47.700;7.924;2023-02-16T09:55:51;29.30;70.30
42615;DHT22;28754;47.700;7.924;2023-02-16T09:59:04;27.80;72.20
42615;DHT22;28754;47.700;7.924;2023-02-16T10:05:28;26.20;72.60
42615;DHT22;28754;47.700;7.924;2023-02-16T10:08:48;27.30;73.40
42615;DHT22;28754;47.700;7.924;2023-02-16T10:11:47;31.30;68.70
42615;DHT22;28754;47.700;7.924;2023-02-16T10:15:05;28.50;71.00
42615;DHT22;28754;47.700;7.924;2023-02-16T10:18:13;26.60;70.50
42615;DHT22;28754;47.700;7.924;2023-02-16T10:21:14;25.70;73.00
42615;DHT22;28754;47.700;7.924;2023-02-16T10:24:05;25.40;73.10
42615;DHT22;28754;47.700;7.924;2023-02-16T10:26:58;26.10;73.20
42615;DHT22;28754;47.700;7.924;2023-02-16T10:29:53;27.30;72.10
42615;DHT22;28754;47.700;7.924;2023-02-16T10:32:53;27.20;70.70
42615;DHT22;28754;47.700;7.924;2023-02-16T10:35:55;30.50;69.70
42615;DHT22;28754;47.700;7.924;2023-02-16T10:39:11;27.20;72.00
42615;DHT22;28754;47.700;7.924;2023-02-16T10:42:20;29.90;68.50
42615;DHT22;28754;47.700;7.924;2023-02-16T10:48:10;31.60;68.00
42615;DHT22;28754;47.700;7.924;2023-02-16T10:51:06;31.80;66.80
42615;DHT22;28754;47.700;7.924;2023-02-16T10:54:00;30.00;68.00
42615;DHT22;28754;47.700;7.924;2023-02-16T10:56:57;29.70;70.60
42615;DHT22;28754;47.700;7.924;2023-02-16T10:59:46;30.00;69.00
42615;DHT22;28754;47.700;7.924;2023-02-16T11:02:39;28.20;68.60
42615;DHT22;28754;47.700;7.924;2023-02-16T11:05:37;27.00;70.20
42615;DHT22;28754;47.700;7.924;2023-02-16T11:08:45;27.30;71.10
42615;DHT22;28754;47.700;7.924;2023-02-16T11:11:38;25.70;70.70
42615;DHT22;28754;47.700;7.924;2023-02-16T11:14:29;27.20;70.20
42615;DHT22;28754;47.700;7.924;2023-02-16T11:17:17;25.90;70.40
42615;DHT22;28754;47.700;7.924;2023-02-16T11:20:22;25.90;72.20
42615;DHT22;28754;47.700;7.924;2023-02-16T11:23:20;29.50;69.20
42615;DHT22;28754;47.700;7.924;2023-02-16T11:29:17;27.60;70.80
42615;DHT22;28754;47.700;7.924;2023-02-16T11:32:12;30.20;68.90
42615;DHT22;28754;47.700;7.924;2023-02-16T11:35:01;29.30;67.70
42615;DHT22;28754;47.700;7.924;2023-02-16T11:37:47;27.90;67.50
42615;DHT22;28754;47.700;7.924;2023-02-16T11:40:34;29.40;67.80
42615;DHT22;28754;47.700;7.924;2023-02-16T11:43:21;29.80;66.40
42615;DHT22;28754;47.700;7.924;2023-02-16T11:46:17;27.00;67.80
42615;DHT22;28754;47.700;7.924;2023-02-16T11:49:29;26.20;67.10
42615;DHT22;28754;47.700;7.924;2023-02-16T11:52:28;27.50;67.40
42615;DHT22;28754;47.700;7.924;2023-02-16T11:55:27;29.90;64.90
42615;DHT22;28754;47.700;7.924;2023-02-16T11:58:24;28.20;66.70
42615;DHT22;28754;47.700;7.924;2023-02-16T12:08:18;31.30;63.10
42615;DHT22;28754;47.700;7.924;2023-02-16T12:21:06;29.70;64.20
42615;DHT22;28754;47.700;7.924;2023-02-16T12:27:41;32.40;62.50
42615;DHT22;28754;47.700;7.924;2023-02-16T12:33:37;26.10;68.80
42615;DHT22;28754;47.700;7.924;2023-02-16T12:45:55;27.80;67.90
42615;DHT22;28754;47.700;7.924;2023-02-16T12:48:50;26.50;67.80
42615;DHT22;28754;47.700;7.924;2023-02-16T12:52:02;24.20;69.80
42615;DHT22;28754;47.700;7.924;2023-02-16T13:01:22;25.80;69.90
42615;DHT22;28754;47.700;7.924;2023-02-16T13:07:31;25.00;70.30
42615;DHT22;28754;47.700;7.924;2023-02-16T13:11:03;23.60;71.10
42615;DHT22;28754;47.700;7.924;2023-02-16T13:14:00;21.90;73.60
42615;DHT22;28754;47.700;7.924;2023-02-16T13:16:56;20.50;76.40
42615;DHT22;28754;47.700;7.924;2023-02-16T13:19:47;20.70;76.50
42615;DHT22;28754;47.700;7.924;2023-02-16T13:22:42;20.90;76.60
42615;DHT22;28754;47.700;7.924;2023-02-16T13:25:51;19.80;78.10
42615;DHT22;28754;47.700;7.924;2023-02-16T13:29:14;19.30;78.70
42615;DHT22;28754;47.700;7.924;2023-02-16T13:44:49;16.40;84.20
42615;DHT22;28754;47.700;7.924;2023-02-16T13:47:40;16.40;84.20
42615;DHT22;28754;47.700;7.924;2023-02-16T13:50:32;16.00;85.30
42615;DHT22;28754;47.700;7.924;2023-02-16T13:53:20;16.30;86.00
42615;DHT22;28754;47.700;7.924;2023-02-16T14:02:52;15.40;88.40
42615;DHT22;28754;47.700;7.924;2023-02-16T14:05:48;15.70;87.40
42615;DHT22;28754;47.700;7.924;2023-02-16T14:08:37;15.60;88.20
42615;DHT22;28754;47.700;7.924;2023-02-16T14:11:23;15.70;88.10
42615;DHT22;28754;47.700;7.924;2023-02-16T14:14:43;15.00;89.50
42615;DHT22;28754;47.700;7.924;2023-02-16T14:17:40;15.00;90.10
42615;DHT22;28754;47.700;7.924;2023-02-16T14:20:28;15.90;89.00
42615;DHT22;28754;47.700;7.924;2023-02-16T14:23:29;16.70;87.50
42615;DHT22;28754;47.700;7.924;2023-02-16T14:26:20;16.50;86.50
42615;DHT22;28754;47.700;7.924;2023-02-16T14:29:16;16.30;87.70
42615;DHT22;28754;47.700;7.924;2023-02-16T14:32:25;15.90;89.30
42615;DHT22;28754;47.700;7.924;2023-02-16T14:35:28;15.10;90.10
42615;DHT22;28754;47.700;7.924;2023-02-16T14:41:31;16.10;89.00
42615;DHT22;28754;47.700;7.924;2023-02-16T14:44:31;15.90;88.70
42615;DHT22;28754;47.700;7.924;2023-02-16T14:51:32;17.70;85.00
42615;DHT22;28754;47.700;7.924;2023-02-16T14:54:33;16.60;88.10
42615;DHT22;28754;47.700;7.924;2023-02-16T15:01:42;15.30;90.00
42615;DHT22;28754;47.700;7.924;2023-02-16T15:04:32;14.40;91.10
42615;DHT22;28754;47.700;7.924;2023-02-16T15:07:21;13.90;91.60
42615;DHT22;28754;47.700;7.924;2023-02-16T15:10:11;13.40;92.30
42615;DHT22;28754;47.700;7.924;2023-02-16T15:12:59;13.50;92.40
42615;DHT22;28754;47.700;7.924;2023-02-16T15:15:49;13.50;92.60
42615;DHT22;28754;47.700;7.924;2023-02-16T15:18:58;13.50;92.30
42615;DHT22;28754;47.700;7.924;2023-02-16T15:22:07;13.70;92.30
42615;DHT22;28754;47.700;7.924;2023-02-16T15:25:02;13.70;92.20
42615;DHT22;28754;47.700;7.924;2023-02-16T15:27:56;13.50;92.20
42615;DHT22;28754;47.700;7.924;2023-02-16T15:31:04;13.50;92.60
42615;DHT22;28754;47.700;7.924;2023-02-16T15:33:54;13.70;92.40
42615;DHT22;28754;47.700;7.924;2023-02-16T15:36:44;13.60;92.40
42615;DHT22;28754;47.700;7.924;2023-02-16T15:39:33;13.40;92.80
42615;DHT22;28754;47.700;7.924;2023-02-16T15:42:24;13.20;92.90
42615;DHT22;28754;47.700;7.924;2023-02-16T15:45:30;13.50;92.60
42615;DHT22;28754;47.700;7.924;2023-02-16T15:48:30;13.60;91.90
42615;DHT22;28754;47.700;7.924;2023-02-16T15:51:31;13.70;91.90
42615;DHT22;28754;47.700;7.924;2023-02-16T15:54:29;13.60;91.80
42615;DHT22;28754;47.700;7.924;2023-02-16T15:57:35;13.60;91.90
42615;DHT22;28754;47.700;7.924;2023-02-16T16:00:24;13.30;92.40
42615;DHT22;28754;47.700;7.924;2023-02-16T16:03:14;13.20;92.40
42615;DHT22;28754;47.700;7.924;2023-02-16T16:06:04;13.00;92.80
42615;DHT22;28754;47.700;7.924;2023-02-16T16:08:51;12.70;92.60
42615;DHT22;28754;47.700;7.924;2023-02-16T16:11:38;12.70;92.60
42615;DHT22;28754;47.700;7.924;2023-02-16T16:14:26;12.40;93.00
42615;DHT22;28754;47.700;7.924;2023-02-16T16:17:17;12.30;93.20
42615;DHT22;28754;47.700;7.924;2023-02-16T16:20:25;12.40;93.10
42615;DHT22;28754;47.700;7.924;2023-02-16T16:26:04;12.90;92.90
42615;DHT22;28754;47.700;7.924;2023-02-16T16:29:03;13.10;92.90
42615;DHT22;28754;47.700;7.924;2023-02-16T16:32:24;13.10;92.80
42615;DHT22;28754;47.700;7.924;2023-02-16T16:35:21;13.00;92.60
42615;DHT22;28754;47.700;7.924;2023-02-16T16:38:32;13.00;92.80
42615;DHT22;28754;47.700;7.924;2023-02-16T16:41:26;12.80;92.80
42615;DHT22;28754;47.700;7.924;2023-02-16T16:44:53;12.60;93.10
42615;DHT22;28754;47.700;7.924;2023-02-16T16:47:49;12.50;93.30
42615;DHT22;28754;47.700;7.924;2023-02-16T16:50:38;12.50;93.40
42615;DHT22;28754;47.700;7.924;2023-02-16T16:56:37;11.80;93.70
42615;DHT22;28754;47.700;7.924;2023-02-16T17:41:42;11.10;96.20
42615;DHT22;28754;47.700;7.924;2023-02-16T18:03:07;10.90;96.90
42615;DHT22;28754;47.700;7.924;2023-02-16T18:09:47;11.10;96.70
42615;DHT22;28754;47.700;7.924;2023-02-16T18:19:56;11.20;96.50
42615;DHT22;28754;47.700;7.924;2023-02-16T18:30:02;11.20;96.20
42615;DHT22;28754;47.700;7.924;2023-02-16T18:33:36;11.20;96.00
42615;DHT22;28754;47.700;7.924;2023-02-16T18:44:34;11.30;95.80
42615;DHT22;28754;47.700;7.924;2023-02-16T18:48:00;11.40;95.80
42615;DHT22;28754;47.700;7.924;2023-02-16T18:51:12;11.10;95.90
42615;DHT22;28754;47.700;7.924;2023-02-16T19:02:25;11.00;96.70
42615;DHT22;28754;47.700;7.924;2023-02-16T19:05:12;10.80;96.80
42615;DHT22;28754;47.700;7.924;2023-02-16T19:07:59;10.70;97.00
42615;DHT22;28754;47.700;7.924;2023-02-16T19:11:29;10.90;97.20
42615;DHT22;28754;47.700;7.924;2023-02-16T19:18:25;10.60;97.40
42615;DHT22;28754;47.700;7.924;2023-02-16T19:21:37;10.60;97.80
42615;DHT22;28754;47.700;7.924;2023-02-16T19:24:25;10.60;97.90
42615;DHT22;28754;47.700;7.924;2023-02-16T19:30:07;10.40;97.80
42615;DHT22;28754;47.700;7.924;2023-02-16T19:33:07;10.40;97.90
42615;DHT22;28754;47.700;7.924;2023-02-16T19:36:10;10.30;97.90
42615;DHT22;28754;47.700;7.924;2023-02-16T19:39:32;10.30;98.10
42615;DHT22;28754;47.700;7.924;2023-02-16T19:50:27;10.20;97.20
42615;DHT22;28754;47.700;7.924;2023-02-16T19:53:25;10.20;97.70
42615;DHT22;28754;47.700;7.924;2023-02-16T19:56:42;10.30;97.50
42615;DHT22;28754;47.700;7.924;2023-02-16T20:00:04;10.10;97.70
42615;DHT22;28754;47.700;7.924;2023-02-16T20:03:10;10.10;97.60
42615;DHT22;28754;47.700;7.924;2023-02-16T20:06:18;10.00;97.60
42615;DHT22;28754;47.700;7.924;2023-02-16T20:09:08;10.10;97.60
42615;DHT22;28754;47.700;7.924;2023-02-16T20:11:57;10.00;97.50
42615;DHT22;28754;47.700;7.924;2023-02-16T20:14:44;10.00;97.60
42615;DHT22;28754;47.700;7.924;2023-02-16T20:17:31;10.00;97.10
42615;DHT22;28754;47.700;7.924;2023-02-16T20:20:18;10.00;97.40
42615;DHT22;28754;47.700;7.924;2023-02-16T20:23:05;10.00;97.30
42615;DHT22;28754;47.700;7.924;2023-02-16T20:25:54;10.10;97.20
42615;DHT22;28754;47.700;7.924;2023-02-16T20:28:41;10.20;97.20
42615;DHT22;28754;47.700;7.924;2023-02-16T20:31:36;10.20;97.00
42615;DHT22;28754;47.700;7.924;2023-02-16T20:34:26;10.20;97.30
42615;DHT22;28754;47.700;7.924;2023-02-16T20:37:13;10.20;97.00
42615;DHT22;28754;47.700;7.924;2023-02-16T20:40:00;10.20;97.40
42615;DHT22;28754;47.700;7.924;2023-02-16T20:42:47;10.00;97.10
42615;DHT22;28754;47.700;7.924;2023-02-16T20:45:36;10.00;97.00
42615;DHT22;28754;47.700;7.924;2023-02-16T20:48:27;10.00;96.90
42615;DHT22;28754;47.700;7.924;2023-02-16T20:51:14;10.10;96.80
42615;DHT22;28754;47.700;7.924;2023-02-16T20:54:05;10.20;96.80
42615;DHT22;28754;47.700;7.924;2023-02-16T20:56:56;10.10;96.70
42615;DHT22;28754;47.700;7.924;2023-02-16T20:59:42;10.20;96.60
42615;DHT22;28754;47.700;7.924;2023-02-16T21:02:29;10.20;96.50
42615;DHT22;28754;47.700;7.924;2023-02-16T21:05:19;10.20;96.50
42615;DHT22;28754;47.700;7.924;2023-02-16T21:08:41;10.10;96.60
42615;DHT22;28754;47.700;7.924;2023-02-16T21:17:17;10.20;96.50
42615;DHT22;28754;47.700;7.924;2023-02-16T21:24:18;10.00;96.60
42615;DHT22;28754;47.700;7.924;2023-02-16T21:30:53;9.80;96.70
42615;DHT22;28754;47.700;7.924;2023-02-16T21:33:41;9.80;96.70
42615;DHT22;28754;47.700;7.924;2023-02-16T21:36:28;9.90;96.90
42615;DHT22;28754;47.700;7.924;2023-02-16T21:39:15;10.00;96.70
42615;DHT22;28754;47.700;7.924;2023-02-16T21:42:01;9.90;96.60
42615;DHT22;28754;47.700;7.924;2023-02-16T21:44:48;9.90;96.70
42615;DHT22;28754;47.700;7.924;2023-02-16T21:47:55;9.90;96.80
42615;DHT22;28754;47.700;7.924;2023-02-16T21:51:01;10.00;96.70
42615;DHT22;28754;47.700;7.924;2023-02-16T21:53:51;10.00;96.30
42615;DHT22;28754;47.700;7.924;2023-02-16T21:56:41;10.00;96.50
42615;DHT22;28754;47.700;7.924;2023-02-16T21:59:28;10.00;96.20
42615;DHT22;28754;47.700;7.924;2023-02-16T22:02:19;10.10;96.20
42615;DHT22;28754;47.700;7.924;2023-02-16T22:05:14;10.10;96.00
42615;DHT22;28754;47.700;7.924;2023-02-16T22:08:05;10.20;95.80
42615;DHT22;28754;47.700;7.924;2023-02-16T22:10:52;10.20;95.80
42615;DHT22;28754;47.700;7.924;2023-02-16T22:13:42;10.10;96.00
42615;DHT22;28754;47.700;7.924;2023-02-16T22:16:37;10.20;95.90
42615;DHT22;28754;47.700;7.924;2023-02-16T22:19:25;10.20;95.90
42615;DHT22;28754;47.700;7.924;2023-02-16T22:22:12;10.20;95.80
42615;DHT22;28754;47.700;7.924;2023-02-16T22:24:59;10.20;95.80
42615;DHT22;28754;47.700;7.924;2023-02-16T22:27:46;10.10;96.20
42615;DHT22;28754;47.700;7.924;2023-02-16T22:30:32;10.20;96.10
42615;DHT22;28754;47.700;7.924;2023-02-16T22:33:24;10.30;96.10
42615;DHT22;28754;47.700;7.924;2023-02-16T22:36:11;10.20;95.90
42615;DHT22;28754;47.700;7.924;2023-02-16T22:38:59;10.20;96.10
42615;DHT22;28754;47.700;7.924;2023-02-16T22:41:52;10.20;96.20
42615;DHT22;28754;47.700;7.924;2023-02-16T22:44:43;10.30;96.00